Terminal Aerodrome Forecast
Issued by NWS

Home | Current Version | Previous Version | Text Only | Print | Product List | Glossary On
Versions: 1 2 3 4 5 6 7 8 9 10 11 12 13 14 15 16 17 18 19
000
FTAK31 PAFA 181150
TAFABT
TAF
PABT 181150Z 1812/1912 34005KT 5SM -SN BR SCT025 OVC040
      TEMPO 1812/1815 3SM -SN BR BKN025
     FM181800 33005KT P6SM VCSH BKN040=

USA.gov is the U.S. government's official web portal to all federal, state and local government web resources and services.